Ana Sayfa
METAR-TAF:

METAR-TAF

Havaalanları :

Cengiz Topel Havalimanı

İzmit, Türkiye

Enlem: 40-44N, Boylam: 030-05E, yükseklik: 50 m

Güncel hava durumu gözlemi

Rapor saat 19:50 UTC de 58 dakika önce yapıldı.
Sakin rüzgar
Sıcaklık 19°C
Nem 88%
Basınç 1017 hPa
Görüş mesafesi 10 km veya daha fazla
2600 ft yükseklikte parçalı çok bulutlu

METAR: LTBQ 231950Z 00000KT 9999 BKN026 19/17 Q1017 NOSIG

Saat: 23:48 (20:48 UTC)

Tahmin

Rapor saat 19:40 UTC de 1 saat ve 8 dakika önce yapıldı.
Ayın 23'si saat 21 UTC'den ayın 24'si saat 06 UTC'ye kadar geçerli Tahmin
Rüzgar değişken yönden 2 kt
Görüş mesafesi: 8000 m
2000 ft yükseklikte parçalı çok bulutlu
Olasılık 40% :
Geçici
ayın 24'si saat 03 UTC'den ayın 24'si saat 06 UTC'ye kadar
Görüş mesafesi: 5000 m
Pus

TAF: LTBQ 231940Z 2321/2406 VRB02KT 8000 BKN020 PROB40 TEMPO 2403/2406 5000 BR

4.000'den fazla havaalanı için hava durumu gözlemleri ve tahminleri (METAR ve TAF raporları).

Kullanılabilir istasyonlar harita üzerinde sarı ve kırmızı noktalarla gösterilir.

İstasyonun adını görmek için fareyi noktanın üzerinde gezdirin.

Sonrasında hava gözlem ve tahminlerini görmek için tıklayın.

Haritayı değiştirmek için: yaklaştırmak için siyah artı işaretli yeşil düğmeye ve uzaklaştırmak için de eksi işaretli düğmeye hızla tıklayın; bitişik haritalar için yeşil okları kullanın.


METAR-TAF: